Time;durP1;ratioP1;P1;durP2;ratioP2;P2;SDS_P1;SDS_P2;PMS_P1;PMS_P2;Temp;Humidity;BMP_temperature;BMP_pressure;BME280_temperature;BME280_humidity;BME280_pressure;Samples;Min_cycle;Max_cycle;Signal;HPM_P1;HPM_P2
2022/07/15 00:02:16;;;;;;;7.05;4.20;;;;;;;;;;5014958;28;20030;-80
2022/07/15 00:04:43;;;;;;;6.63;4.38;;;;;;;;;;5014941;28;20033;-80
2022/07/15 00:07:09;;;;;;;8.88;4.20;;;;;;;;;;5014958;28;20030;-80
2022/07/15 00:12:20;;;;;;;7.63;3.75;;;;;;;;;;5014835;28;20105;-79
2022/07/15 00:14:46;;;;;;;7.30;3.78;;;;;;;;;;5014787;28;20469;-80
2022/07/15 00:17:12;;;;;;;8.15;3.83;;;;;;;;;;5014552;28;20037;-80
2022/07/15 00:19:38;;;;;;;7.05;3.80;;;;;;;;;;4997264;28;20030;-80
2022/07/15 00:22:04;;;;;;;8.82;4.28;;;;;;;;;;5014303;28;20057;-81
2022/07/15 00:24:31;;;;;;;7.03;3.53;;;;;;;;;;5013923;28;20429;-80
2022/07/15 00:26:57;;;;;;;5.68;3.03;;;;;;;;;;4996998;28;20436;-80
2022/07/15 00:29:25;;;;;;;4.68;3.08;;;;;;;;;;5014608;28;20057;-80
2022/07/15 00:31:51;;;;;;;6.45;3.30;;;;;;;;;;5014457;28;20034;-80
2022/07/15 00:34:17;;;;;;;6.43;3.22;;;;;;;;;;5014354;28;20029;-79
2022/07/15 00:36:44;;;;;;;4.72;3.47;;;;;;;;;;5014458;28;20022;-81
2022/07/15 00:39:10;;;;;;;5.22;2.97;;;;;;;;;;4996635;28;20428;-80
2022/07/15 00:41:37;;;;;;;6.65;3.22;;;;;;;;;;5014358;28;20026;-80
2022/07/15 00:44:03;;;;;;;5.07;3.90;;;;;;;;;;5014112;28;20033;-80
2022/07/15 00:46:30;;;;;;;9.23;4.43;;;;;;;;;;5014112;28;20076;-80
2022/07/15 00:48:57;;;;;;;9.50;5.82;;;;;;;;;;5014154;28;20026;-79
2022/07/15 00:51:23;;;;;;;7.55;5.88;;;;;;;;;;5014009;28;20037;-80
2022/07/15 00:53:50;;;;;;;6.10;2.97;;;;;;;;;;5014049;28;20030;-80
2022/07/15 00:56:16;;;;;;;5.53;2.95;;;;;;;;;;5013862;28;20029;-79
2022/07/15 00:58:43;;;;;;;6.88;3.22;;;;;;;;;;5013910;28;20507;-80
2022/07/15 01:01:10;;;;;;;6.85;3.08;;;;;;;;;;5013940;28;20062;-80
2022/07/15 01:03:37;;;;;;;5.45;3.00;;;;;;;;;;5014041;28;20033;-80
2022/07/15 01:06:03;;;;;;;7.57;3.28;;;;;;;;;;5013799;28;20099;-80
2022/07/15 01:08:30;;;;;;;12.77;4.60;;;;;;;;;;5013814;28;20028;-80
2022/07/15 01:10:56;;;;;;;10.30;3.67;;;;;;;;;;5013696;28;20037;-79
2022/07/15 01:13:23;;;;;;;6.95;3.42;;;;;;;;;;5013397;28;20025;-80
2022/07/15 01:15:50;;;;;;;6.75;3.67;;;;;;;;;;5013734;28;20985;-80
2022/07/15 01:18:16;;;;;;;8.15;3.08;;;;;;;;;;5013553;28;20032;-80
2022/07/15 01:20:43;;;;;;;5.65;3.83;;;;;;;;;;5013761;28;20046;-80
2022/07/15 01:23:09;;;;;;;5.95;3.60;;;;;;;;;;5013574;28;20028;-80
2022/07/15 01:25:35;;;;;;;5.60;3.58;;;;;;;;;;5013579;28;20030;-80
2022/07/15 01:28:02;;;;;;;5.78;3.90;;;;;;;;;;5013398;28;20032;-80
2022/07/15 01:30:28;;;;;;;6.47;3.67;;;;;;;;;;4995769;28;20030;-79
2022/07/15 01:32:54;;;;;;;5.15;3.33;;;;;;;;;;4995773;28;20057;-79
2022/07/15 01:35:20;;;;;;;6.47;3.97;;;;;;;;;;5013184;28;20053;-80
2022/07/15 01:37:46;;;;;;;6.30;3.58;;;;;;;;;;4995847;28;20125;-80
2022/07/15 01:40:12;;;;;;;8.88;4.07;;;;;;;;;;5013260;28;20036;-81
2022/07/15 01:42:39;;;;;;;8.68;4.25;;;;;;;;;;4995627;28;20034;-81
2022/07/15 01:45:06;;;;;;;8.98;4.50;;;;;;;;;;5013153;28;20076;-81
2022/07/15 01:47:32;;;;;;;7.47;4.18;;;;;;;;;;5013082;28;20473;-80
2022/07/15 01:49:59;;;;;;;8.55;4.63;;;;;;;;;;5013043;28;20508;-80
2022/07/15 01:52:25;;;;;;;9.32;5.00;;;;;;;;;;5012961;28;20036;-81
2022/07/15 01:54:51;;;;;;;6.47;4.50;;;;;;;;;;5013115;28;20551;-80
2022/07/15 01:57:18;;;;;;;6.43;4.20;;;;;;;;;;5012975;28;20114;-80
2022/07/15 01:59:44;;;;;;;6.93;3.85;;;;;;;;;;5012969;28;20405;-80
2022/07/15 02:02:10;;;;;;;5.82;3.78;;;;;;;;;;5013039;28;20112;-80
2022/07/15 02:04:36;;;;;;;8.07;3.95;;;;;;;;;;5012773;28;20029;-80
2022/07/15 02:07:04;;;;;;;5.20;3.60;;;;;;;;;;5012895;28;20038;-80
2022/07/15 02:09:30;;;;;;;8.20;3.90;;;;;;;;;;4995098;28;20089;-80
2022/07/15 02:11:56;;;;;;;10.77;4.25;;;;;;;;;;5012806;28;20069;-80
2022/07/15 02:14:22;;;;;;;9.45;4.53;;;;;;;;;;5012803;28;20454;-80
2022/07/15 02:16:49;;;;;;;5.68;3.20;;;;;;;;;;5012728;28;20032;-80
2022/07/15 02:19:15;;;;;;;4.90;3.15;;;;;;;;;;5012756;28;20033;-81
2022/07/15 02:21:41;;;;;;;7.05;3.20;;;;;;;;;;5012354;28;20042;-81
2022/07/15 02:24:07;;;;;;;7.78;3.33;;;;;;;;;;5012640;28;20037;-80
2022/07/15 02:26:33;;;;;;;7.80;3.80;;;;;;;;;;5012614;28;20462;-80
2022/07/15 02:29:00;;;;;;;4.50;3.20;;;;;;;;;;5012692;28;20032;-81
2022/07/15 02:31:26;;;;;;;6.80;3.65;;;;;;;;;;5012631;28;20131;-80
2022/07/15 02:33:52;;;;;;;6.55;3.92;;;;;;;;;;5012610;28;20049;-80
2022/07/15 02:36:18;;;;;;;7.45;3.85;;;;;;;;;;5012733;28;20026;-80
2022/07/15 02:38:44;;;;;;;8.88;4.55;;;;;;;;;;5012358;28;20436;-80
2022/07/15 02:41:12;;;;;;;8.90;4.70;;;;;;;;;;5012581;28;20033;-80
2022/07/15 02:43:41;;;;;;;7.57;3.95;;;;;;;;;;5012350;28;20044;-80
2022/07/15 02:46:08;;;;;;;5.97;3.45;;;;;;;;;;4995158;28;20026;-80
2022/07/15 02:48:35;;;;;;;7.22;3.72;;;;;;;;;;5016414;28;20022;-80
2022/07/15 02:51:01;;;;;;;7.80;3.80;;;;;;;;;;5016310;28;20030;-80
2022/07/15 02:53:28;;;;;;;5.88;3.33;;;;;;;;;;5016404;28;20022;-80
2022/07/15 02:55:55;;;;;;;6.20;3.75;;;;;;;;;;5016300;28;20465;-80
2022/07/15 02:58:22;;;;;;;6.05;4.00;;;;;;;;;;5016518;28;20025;-80
2022/07/15 03:00:49;;;;;;;6.97;3.67;;;;;;;;;;5016124;28;20056;-80
2022/07/15 03:03:16;;;;;;;6.78;4.13;;;;;;;;;;5016299;28;20104;-80
2022/07/15 03:05:42;;;;;;;6.25;3.50;;;;;;;;;;5016102;28;20037;-80
2022/07/15 03:08:08;;;;;;;7.32;4.13;;;;;;;;;;5016042;28;20029;-80
2022/07/15 03:10:34;;;;;;;9.65;3.67;;;;;;;;;;5015955;28;20465;-80
2022/07/15 03:13:00;;;;;;;7.35;3.47;;;;;;;;;;5015964;28;20025;-80
2022/07/15 03:15:27;;;;;;;6.68;3.38;;;;;;;;;;5016107;28;20026;-80
2022/07/15 03:17:53;;;;;;;5.97;3.70;;;;;;;;;;5015766;28;20061;-80
2022/07/15 03:20:19;;;;;;;7.55;3.45;;;;;;;;;;5015709;28;20030;-80
2022/07/15 03:22:45;;;;;;;5.72;3.30;;;;;;;;;;5015714;28;20030;-80
2022/07/15 03:25:11;;;;;;;8.18;3.70;;;;;;;;;;5015834;28;20029;-80
2022/07/15 03:27:37;;;;;;;7.18;3.30;;;;;;;;;;5015886;28;20029;-80
2022/07/15 03:30:04;;;;;;;9.65;4.40;;;;;;;;;;5015547;28;20030;-80
2022/07/15 03:32:30;;;;;;;8.70;4.53;;;;;;;;;;5015776;28;20026;-79
2022/07/15 03:34:59;;;;;;;7.10;4.47;;;;;;;;;;5015426;28;20022;-80
2022/07/15 03:37:25;;;;;;;9.35;4.65;;;;;;;;;;5015668;28;20041;-80
2022/07/15 03:39:52;;;;;;;9.80;4.63;;;;;;;;;;5015403;28;20018;-80
2022/07/15 03:42:18;;;;;;;5.70;3.05;;;;;;;;;;4997686;28;20083;-80
2022/07/15 03:44:44;;;;;;;5.88;3.70;;;;;;;;;;5015332;28;20057;-80
2022/07/15 03:47:10;;;;;;;7.88;4.28;;;;;;;;;;5015328;28;20091;-80
2022/07/15 03:49:36;;;;;;;7.50;3.92;;;;;;;;;;5015255;28;20543;-80
2022/07/15 03:52:03;;;;;;;12.40;6.15;;;;;;;;;;5015117;28;20034;-79
2022/07/15 03:54:29;;;;;;;12.90;6.00;;;;;;;;;;5015287;28;20030;-79
2022/07/15 03:56:55;;;;;;;7.82;4.63;;;;;;;;;;5015005;28;20049;-79
2022/07/15 03:59:21;;;;;;;10.52;4.80;;;;;;;;;;4996351;28;20037;-79
2022/07/15 04:01:50;;;;;;;7.68;5.20;;;;;;;;;;5014999;28;20053;-79
2022/07/15 04:04:16;;;;;;;9.27;4.90;;;;;;;;;;5014867;28;20469;-79
2022/07/15 04:06:43;;;;;;;12.80;9.93;;;;;;;;;;5014834;28;20076;-79
2022/07/15 04:09:10;;;;;;;14.07;11.40;;;;;;;;;;5014432;28;20026;-79
2022/07/15 04:11:36;;;;;;;10.23;4.78;;;;;;;;;;5014874;28;20049;-79
2022/07/15 04:14:02;;;;;;;5.13;3.63;;;;;;;;;;5014715;28;20034;-79
2022/07/15 04:16:29;;;;;;;9.45;7.50;;;;;;;;;;5014891;28;20021;-79
2022/07/15 04:18:55;;;;;;;7.82;4.70;;;;;;;;;;5014577;28;20048;-79
2022/07/15 04:21:21;;;;;;;9.55;4.88;;;;;;;;;;5014628;28;20107;-78
2022/07/15 04:23:47;;;;;;;11.88;5.40;;;;;;;;;;5014607;28;20108;-79
2022/07/15 04:26:14;;;;;;;15.50;11.05;;;;;;;;;;5014272;28;20026;-78
2022/07/15 04:28:40;;;;;;;11.30;9.20;;;;;;;;;;5014593;28;20030;-78
2022/07/15 04:31:06;;;;;;;12.48;5.32;;;;;;;;;;5014131;28;20069;-79
2022/07/15 04:33:32;;;;;;;9.40;4.78;;;;;;;;;;5014352;28;20174;-78
2022/07/15 04:35:58;;;;;;;7.20;4.50;;;;;;;;;;5014204;28;20029;-78
2022/07/15 04:38:24;;;;;;;7.63;4.70;;;;;;;;;;5014287;28;20508;-78
2022/07/15 04:40:50;;;;;;;8.73;4.63;;;;;;;;;;5014085;28;20033;-80
2022/07/15 04:43:16;;;;;;;8.02;4.40;;;;;;;;;;5014035;28;20034;-79
2022/07/15 04:45:42;;;;;;;7.60;3.78;;;;;;;;;;5014218;28;20034;-78
2022/07/15 04:50:53;;;;;;;;;;;;;;;;;;5014376;28;20101;-78
2022/07/15 04:53:20;;;;;;;7.53;3.65;;;;;;;;;;5014067;28;19905;-78
2022/07/15 04:55:46;;;;;;;6.38;3.35;;;;;;;;;;5013962;28;20030;-78
2022/07/15 04:58:14;;;;;;;4.07;3.22;;;;;;;;;;5013712;28;20039;-79
2022/07/15 05:00:41;;;;;;;6.15;3.05;;;;;;;;;;5013800;28;20109;-79
2022/07/15 05:03:07;;;;;;;4.25;2.90;;;;;;;;;;5013329;28;20489;-79
2022/07/15 05:05:33;;;;;;;6.63;3.47;;;;;;;;;;5013511;28;20030;-80
2022/07/15 05:07:59;;;;;;;5.18;2.85;;;;;;;;;;5013550;28;20029;-79
2022/07/15 05:10:25;;;;;;;4.38;3.13;;;;;;;;;;5013249;28;20036;-80
2022/07/15 05:12:51;;;;;;;4.47;3.53;;;;;;;;;;4995886;28;20025;-77
2022/07/15 05:15:17;;;;;;;6.07;3.13;;;;;;;;;;5013549;28;20053;-77
2022/07/15 05:17:44;;;;;;;6.95;3.72;;;;;;;;;;5013488;28;20097;-79
2022/07/15 05:20:10;;;;;;;5.38;3.10;;;;;;;;;;5012923;28;20022;-80
2022/07/15 05:22:36;;;;;;;6.95;3.65;;;;;;;;;;5024955;28;20057;-80
2022/07/15 05:25:03;;;;;;;7.18;3.47;;;;;;;;;;5020641;28;20078;-78
2022/07/15 05:27:29;;;;;;;18.73;3.67;;;;;;;;;;5016086;28;20040;-80
2022/07/15 05:29:58;;;;;;;4.72;2.83;;;;;;;;;;5012987;28;20083;-78
2022/07/15 05:32:24;;;;;;;9.43;6.65;;;;;;;;;;5012013;28;20046;-78
2022/07/15 05:34:51;;;;;;;7.93;4.70;;;;;;;;;;5005876;28;20033;-77
2022/07/15 05:37:17;;;;;;;12.48;7.28;;;;;;;;;;5022850;28;20076;-75
2022/07/15 05:39:56;;;;;;;6.85;4.68;;;;;;;;;;5013817;28;20029;-75
2022/07/15 05:42:22;;;;;;;8.43;3.90;;;;;;;;;;5015075;28;20041;-75
2022/07/15 05:44:49;;;;;;;6.18;4.22;;;;;;;;;;5011543;28;20131;-76
2022/07/15 05:47:15;;;;;;;8.32;4.50;;;;;;;;;;5011408;28;20466;-76
2022/07/15 05:49:41;;;;;;;7.35;3.97;;;;;;;;;;5011666;28;20030;-76
2022/07/15 05:52:08;;;;;;;9.65;4.32;;;;;;;;;;5011147;28;20041;-75
2022/07/15 05:54:34;;;;;;;7.63;4.07;;;;;;;;;;5013391;28;20061;-77
2022/07/15 05:57:01;;;;;;;7.72;3.53;;;;;;;;;;5008633;28;20041;-75
2022/07/15 05:59:27;;;;;;;7.75;2.72;;;;;;;;;;5031193;28;20571;-78
2022/07/15 06:01:53;;;;;;;9.15;4.22;;;;;;;;;;5031259;28;20108;-79
2022/07/15 06:04:20;;;;;;;6.35;3.20;;;;;;;;;;5030290;28;20060;-78
2022/07/15 06:06:47;;;;;;;21.30;6.30;;;;;;;;;;5030904;28;20060;-79
2022/07/15 06:09:13;;;;;;;12.00;2.70;;;;;;;;;;5019910;28;20026;-80
2022/07/15 06:11:39;;;;;;;8.15;4.07;;;;;;;;;;5018045;28;20029;-79
2022/07/15 06:14:05;;;;;;;7.70;4.72;;;;;;;;;;5018230;28;20519;-80
2022/07/15 06:16:32;;;;;;;14.82;9.82;;;;;;;;;;5011611;28;20473;-82
2022/07/15 06:18:59;;;;;;;8.45;4.40;;;;;;;;;;5010911;28;20037;-81
2022/07/15 06:21:25;;;;;;;5.43;3.53;;;;;;;;;;5010384;28;20053;-80
2022/07/15 06:23:51;;;;;;;48.22;25.20;;;;;;;;;;4993465;28;20034;-80
2022/07/15 06:26:17;;;;;;;90.50;45.45;;;;;;;;;;5023838;28;20044;-79
2022/07/15 06:28:43;;;;;;;41.67;22.48;;;;;;;;;;5020750;28;20033;-79
2022/07/15 06:31:09;;;;;;;20.13;11.95;;;;;;;;;;4998568;28;20041;-80
2022/07/15 06:33:35;;;;;;;21.67;13.57;;;;;;;;;;5017910;28;20120;-80
2022/07/15 06:36:02;;;;;;;21.70;11.07;;;;;;;;;;5021714;28;20033;-80
2022/07/15 06:38:28;;;;;;;53.15;24.60;;;;;;;;;;5021146;28;20070;-79
2022/07/15 06:40:54;;;;;;;80.93;34.60;;;;;;;;;;5029663;28;20033;-79
2022/07/15 06:43:20;;;;;;;140.00;57.00;;;;;;;;;;5010452;28;20046;-80
2022/07/15 06:45:49;;;;;;;143.48;59.17;;;;;;;;;;5011032;28;20037;-83
2022/07/15 06:48:16;;;;;;;63.33;26.42;;;;;;;;;;5022529;28;20034;-80
2022/07/15 06:50:45;;;;;;;70.07;28.13;;;;;;;;;;5020033;28;20456;-81
2022/07/15 06:53:11;;;;;;;37.47;16.33;;;;;;;;;;5012601;28;20720;-80
2022/07/15 06:55:38;;;;;;;47.92;20.15;;;;;;;;;;5021014;28;20104;-79
2022/07/15 06:58:04;;;;;;;116.90;46.90;;;;;;;;;;5026879;28;20025;-78
2022/07/15 07:00:30;;;;;;;225.57;91.55;;;;;;;;;;5016530;28;20489;-78
2022/07/15 07:02:56;;;;;;;157.32;67.10;;;;;;;;;;5010965;28;20030;-78
2022/07/15 07:05:22;;;;;;;107.85;46.05;;;;;;;;;;5009762;28;20044;-78
2022/07/15 07:07:48;;;;;;;147.60;59.35;;;;;;;;;;5016888;28;20398;-78
2022/07/15 07:10:14;;;;;;;73.60;31.30;;;;;;;;;;5012348;28;20018;-78
2022/07/15 07:12:40;;;;;;;74.15;32.83;;;;;;;;;;5010364;28;20500;-79
2022/07/15 07:15:07;;;;;;;65.50;26.95;;;;;;;;;;5018422;28;20030;-78
2022/07/15 07:17:33;;;;;;;53.85;23.40;;;;;;;;;;5014754;28;20464;-79
2022/07/15 07:19:59;;;;;;;15.40;7.18;;;;;;;;;;5010547;28;20497;-78
2022/07/15 07:22:26;;;;;;;34.85;20.08;;;;;;;;;;5014052;28;20168;-80
2022/07/15 07:24:53;;;;;;;30.00;22.95;;;;;;;;;;5010233;28;20533;-79
2022/07/15 07:27:19;;;;;;;29.02;14.63;;;;;;;;;;5028044;28;20029;-80
2022/07/15 07:29:45;;;;;;;19.23;10.98;;;;;;;;;;5021424;28;20034;-80
2022/07/15 07:32:12;;;;;;;19.52;10.23;;;;;;;;;;5016200;28;20041;-79
2022/07/15 07:34:38;;;;;;;8.43;5.63;;;;;;;;;;5000684;28;20041;-80
2022/07/15 07:37:04;;;;;;;14.20;8.10;;;;;;;;;;5031382;28;20026;-80
2022/07/15 07:39:31;;;;;;;10.50;6.72;;;;;;;;;;5017818;28;20492;-81
2022/07/15 07:41:57;;;;;;;8.70;4.93;;;;;;;;;;5006606;28;20033;-81
2022/07/15 07:44:23;;;;;;;10.40;6.00;;;;;;;;;;5019706;28;20397;-77
2022/07/15 07:46:49;;;;;;;8.45;5.18;;;;;;;;;;5018485;28;20041;-78
2022/07/15 07:49:15;;;;;;;6.38;3.13;;;;;;;;;;5020473;28;20033;-78
2022/07/15 07:51:42;;;;;;;7.10;3.38;;;;;;;;;;5026047;28;20397;-78
2022/07/15 07:54:08;;;;;;;5.18;3.20;;;;;;;;;;5021588;28;20041;-77
2022/07/15 07:56:35;;;;;;;5.00;2.35;;;;;;;;;;5020135;28;20026;-75
2022/07/15 07:59:01;;;;;;;5.10;3.33;;;;;;;;;;5020126;28;20374;-77
2022/07/15 08:01:27;;;;;;;7.15;3.45;;;;;;;;;;5014354;28;20061;-77
2022/07/15 08:03:53;;;;;;;5.57;2.35;;;;;;;;;;5026299;28;20476;-76
2022/07/15 08:06:19;;;;;;;6.55;2.35;;;;;;;;;;5024639;28;20026;-77
2022/07/15 08:08:45;;;;;;;4.10;2.20;;;;;;;;;;5016665;28;20101;-78
2022/07/15 08:11:12;;;;;;;3.40;2.28;;;;;;;;;;5013524;28;20038;-78
2022/07/15 08:13:39;;;;;;;3.33;2.25;;;;;;;;;;5022957;28;20103;-78
2022/07/15 08:16:06;;;;;;;12.27;11.15;;;;;;;;;;5021716;28;20136;-77
2022/07/15 08:18:32;;;;;;;6.00;2.88;;;;;;;;;;5009671;28;20091;-78
2022/07/15 08:20:59;;;;;;;4.40;2.13;;;;;;;;;;5027769;28;20100;-79
2022/07/15 08:23:25;;;;;;;5.95;2.17;;;;;;;;;;5013182;28;20112;-79
2022/07/15 08:25:52;;;;;;;4.63;2.58;;;;;;;;;;5013306;28;20030;-79
2022/07/15 08:28:19;;;;;;;5.90;4.28;;;;;;;;;;5016238;28;20512;-77
2022/07/15 08:30:46;;;;;;;7.70;5.18;;;;;;;;;;5032819;28;20061;-78
2022/07/15 08:33:12;;;;;;;4.97;3.55;;;;;;;;;;5018826;28;20034;-79
2022/07/15 08:35:40;;;;;;;5.75;3.33;;;;;;;;;;5018195;28;20503;-80
2022/07/15 08:38:07;;;;;;;3.65;1.80;;;;;;;;;;5019190;28;20077;-78
2022/07/15 08:40:33;;;;;;;5.10;1.77;;;;;;;;;;5019830;28;20036;-78
2022/07/15 08:43:00;;;;;;;3.35;2.75;;;;;;;;;;5021207;28;20056;-78
2022/07/15 08:45:27;;;;;;;3.72;2.95;;;;;;;;;;5012539;28;20065;-79
2022/07/15 08:47:53;;;;;;;3.90;1.70;;;;;;;;;;5013028;28;20037;-79
2022/07/15 08:50:20;;;;;;;2.20;1.63;;;;;;;;;;5027317;28;20049;-78
2022/07/15 08:52:47;;;;;;;4.35;1.90;;;;;;;;;;5028153;28;20029;-78
2022/07/15 08:55:15;;;;;;;3.75;2.13;;;;;;;;;;5017176;28;20033;-79
2022/07/15 08:57:45;;;;;;;3.40;1.55;;;;;;;;;;5021242;28;20033;-79
2022/07/15 09:00:11;;;;;;;6.32;1.80;;;;;;;;;;5023258;28;20026;-80
2022/07/15 09:02:38;;;;;;;3.05;1.80;;;;;;;;;;5023073;28;20032;-79
2022/07/15 09:05:23;;;;;;;3.58;1.40;;;;;;;;;;5017968;28;20038;-80
2022/07/15 09:08:03;;;;;;;1.95;1.50;;;;;;;;;;5017222;28;20033;-81
2022/07/15 09:10:42;;;;;;;1.45;1.17;;;;;;;;;;5023102;28;20037;-79
2022/07/15 09:13:08;;;;;;;3.65;2.00;;;;;;;;;;5023881;28;20120;-78
2022/07/15 09:15:38;;;;;;;3.97;1.50;;;;;;;;;;5022812;28;20061;-80
2022/07/15 09:18:06;;;;;;;3.83;1.80;;;;;;;;;;5021822;28;20034;-81
2022/07/15 09:20:32;;;;;;;3.25;1.33;;;;;;;;;;5018360;28;20443;-80
2022/07/15 09:22:59;;;;;;;2.28;1.50;;;;;;;;;;5027941;28;20037;-79
2022/07/15 09:25:27;;;;;;;3.30;1.90;;;;;;;;;;5020142;28;20564;-81
2022/07/15 09:27:53;;;;;;;4.45;2.10;;;;;;;;;;5031521;28;20082;-80
2022/07/15 09:33:34;;;;;;;3.85;1.50;;;;;;;;;;5011715;28;20080;-77
2022/07/15 09:36:05;;;;;;;1.25;1.02;;;;;;;;;;5012023;28;20030;-76
2022/07/15 09:38:50;;;;;;;3.17;1.40;;;;;;;;;;5024375;28;20037;-79
2022/07/15 09:41:25;;;;;;;2.55;1.25;;;;;;;;;;5011890;28;20041;-77
2022/07/15 09:43:53;;;;;;;3.75;1.40;;;;;;;;;;5011360;28;20026;-77
2022/07/15 09:46:23;;;;;;;3.10;1.40;;;;;;;;;;5011650;28;20053;-77
2022/07/15 09:48:52;;;;;;;1.98;1.23;;;;;;;;;;5019225;28;20053;-76
2022/07/15 09:51:18;;;;;;;4.97;2.70;;;;;;;;;;5022449;28;20048;-77
2022/07/15 09:53:45;;;;;;;3.85;1.77;;;;;;;;;;5011796;28;20026;-77
2022/07/15 09:56:13;;;;;;;1.55;1.10;;;;;;;;;;5019056;28;20037;-76
2022/07/15 09:58:41;;;;;;;2.38;1.38;;;;;;;;;;5007224;28;20489;-78
2022/07/15 10:01:07;;;;;;;3.55;1.50;;;;;;;;;;5016421;28;20036;-79
2022/07/15 10:03:34;;;;;;;5.03;1.80;;;;;;;;;;5011727;28;20026;-79
2022/07/15 10:06:01;;;;;;;3.50;1.13;;;;;;;;;;5011042;28;20409;-82
2022/07/15 10:08:28;;;;;;;3.03;1.45;;;;;;;;;;5027901;28;20052;-76
2022/07/15 10:10:56;;;;;;;3.60;1.50;;;;;;;;;;5018079;28;20396;-78
2022/07/15 10:13:41;;;;;;;3.45;1.40;;;;;;;;;;5014413;28;20112;-77
2022/07/15 10:16:07;;;;;;;16.02;9.32;;;;;;;;;;5030818;28;20043;-77
2022/07/15 10:18:52;;;;;;;2.65;1.90;;;;;;;;;;5024906;28;20120;-77
2022/07/15 10:21:20;;;;;;;2.55;1.52;;;;;;;;;;5014562;28;20073;-79
2022/07/15 10:23:53;;;;;;;4.30;3.72;;;;;;;;;;5011623;28;20420;-78
2022/07/15 10:26:20;;;;;;;3.78;1.90;;;;;;;;;;5030650;28;20655;-79
2022/07/15 10:28:49;;;;;;;1.90;1.10;;;;;;;;;;5030784;28;20150;-78
2022/07/15 10:31:33;;;;;;;2.00;1.20;;;;;;;;;;5030704;28;20048;-77
2022/07/15 10:34:02;;;;;;;3.15;1.20;;;;;;;;;;5028895;28;20033;-77
2022/07/15 10:36:44;;;;;;;2.83;1.02;;;;;;;;;;5011486;28;20030;-79
2022/07/15 10:39:10;;;;;;;2.58;1.20;;;;;;;;;;5010494;28;20056;-80
2022/07/15 10:41:51;;;;;;;12.98;5.70;;;;;;;;;;5010696;28;20037;-81
2022/07/15 10:44:20;;;;;;;5.25;2.03;;;;;;;;;;5017062;28;20034;-80
2022/07/15 10:46:48;;;;;;;1.60;0.90;;;;;;;;;;4997053;28;20096;-78
2022/07/15 10:49:14;;;;;;;2.75;1.67;;;;;;;;;;5025297;28;20039;-81
2022/07/15 10:51:41;;;;;;;1.25;0.80;;;;;;;;;;5019547;28;20045;-78
2022/07/15 10:54:08;;;;;;;1.55;0.80;;;;;;;;;;5010913;28;20079;-82
2022/07/15 10:56:53;;;;;;;4.55;0.70;;;;;;;;;;5015768;28;20026;-81
2022/07/15 10:59:40;;;;;;;1.33;0.65;;;;;;;;;;5010686;28;20030;-84
2022/07/15 11:02:06;;;;;;;1.08;0.68;;;;;;;;;;5028318;28;20026;-83
2022/07/15 11:04:36;;;;;;;3.65;3.35;;;;;;;;;;4998431;28;20500;-83
2022/07/15 11:07:07;;;;;;;2.17;0.90;;;;;;;;;;5011702;28;20034;-81
2022/07/15 11:09:52;;;;;;;3.03;1.42;;;;;;;;;;5019772;28;20432;-82
2022/07/15 11:12:36;;;;;;;0.90;0.63;;;;;;;;;;5022767;28;20064;-81
2022/07/15 11:15:06;;;;;;;1.00;0.68;;;;;;;;;;5032731;28;20100;-82
2022/07/15 11:17:32;;;;;;;2.00;0.80;;;;;;;;;;5019420;28;20026;-79
2022/07/15 11:20:08;;;;;;;1.88;0.77;;;;;;;;;;5025148;28;20033;-79
2022/07/15 11:22:35;;;;;;;2.47;0.75;;;;;;;;;;5019784;28;20057;-80
2022/07/15 11:25:01;;;;;;;2.53;0.80;;;;;;;;;;5022808;28;20029;-80
2022/07/15 11:27:27;;;;;;;2.60;0.98;;;;;;;;;;5020205;28;20499;-79
2022/07/15 11:29:54;;;;;;;1.45;0.68;;;;;;;;;;5026163;28;20056;-78
2022/07/15 11:32:22;;;;;;;1.58;1.10;;;;;;;;;;5030187;28;20026;-82
2022/07/15 11:34:55;;;;;;;3.85;1.10;;;;;;;;;;5004792;28;20749;-81
2022/07/15 11:37:29;;;;;;;2.63;1.13;;;;;;;;;;5016066;28;20034;-80
2022/07/15 11:44:29;;;;;;;10.43;6.43;;;;;;;;;;5026394;28;20385;-81
2022/07/15 11:45:46;;;;;;;4.45;1.30;;;;;;;;;;5034660;28;20041;-78
2022/07/15 11:48:12;;;;;;;1.90;1.23;;;;;;;;;;5034317;28;20064;-78
2022/07/15 11:50:48;;;;;;;2.35;1.40;;;;;;;;;;5034405;28;20449;-80
2022/07/15 11:53:15;;;;;;;2.85;0.70;;;;;;;;;;5031705;28;20034;-80
2022/07/15 11:55:50;;;;;;;1.58;1.02;;;;;;;;;;5024086;28;20079;-80
2022/07/15 11:58:24;;;;;;;2.63;0.80;;;;;;;;;;5016799;28;20030;-78
2022/07/15 12:00:50;;;;;;;1.55;0.50;;;;;;;;;;5022327;28;20029;-77
2022/07/15 12:03:17;;;;;;;0.73;0.50;;;;;;;;;;5014739;28;20477;-80
2022/07/15 12:06:00;;;;;;;70.82;63.53;;;;;;;;;;5014457;28;20041;-79
2022/07/15 12:08:44;;;;;;;15.48;14.13;;;;;;;;;;5014614;28;20131;-78
2022/07/15 12:11:21;;;;;;;2.15;1.15;;;;;;;;;;5021449;28;20060;-79
2022/07/15 12:13:49;;;;;;;1.13;0.65;;;;;;;;;;5016513;28;20444;-79
2022/07/15 12:16:18;;;;;;;1.85;0.85;;;;;;;;;;5028695;28;20243;-78
2022/07/15 12:18:44;;;;;;;4.90;0.95;;;;;;;;;;5033266;28;20053;-78
2022/07/15 12:21:10;;;;;;;1.75;0.60;;;;;;;;;;5033116;28;20045;-78
2022/07/15 12:23:37;;;;;;;2.13;0.70;;;;;;;;;;5033880;28;20516;-77
2022/07/15 12:26:21;;;;;;;3.92;1.17;;;;;;;;;;5033626;28;20105;-78
2022/07/15 12:28:52;;;;;;;5.32;2.30;;;;;;;;;;5032959;28;20396;-79
2022/07/15 12:31:24;;;;;;;16.55;6.70;;;;;;;;;;5033567;28;20045;-77
2022/07/15 12:33:51;;;;;;;11.27;4.47;;;;;;;;;;5033233;28;20034;-81
2022/07/15 12:36:19;;;;;;;4.50;1.70;;;;;;;;;;5033236;28;20484;-79
2022/07/15 12:38:45;;;;;;;4.93;2.63;;;;;;;;;;5033405;28;20029;-80
2022/07/15 12:41:25;;;;;;;30.27;14.80;;;;;;;;;;5032799;28;20082;-78
2022/07/15 12:43:52;;;;;;;15.57;5.80;;;;;;;;;;5032902;28;20503;-77
2022/07/15 12:46:19;;;;;;;15.52;6.05;;;;;;;;;;5033557;28;20112;-80
2022/07/15 12:48:49;;;;;;;3.17;1.30;;;;;;;;;;5033540;28;20029;-78
2022/07/15 12:51:17;;;;;;;7.88;3.05;;;;;;;;;;5033032;28;20029;-80
2022/07/15 12:53:45;;;;;;;5.82;1.80;;;;;;;;;;5015409;28;20112;-83
2022/07/15 12:56:11;;;;;;;2.80;1.20;;;;;;;;;;5022536;28;20036;-78
2022/07/15 12:58:37;;;;;;;3.55;1.33;;;;;;;;;;5021147;28;20026;-78
2022/07/15 13:01:05;;;;;;;5.65;2.60;;;;;;;;;;5016870;28;20041;-79
2022/07/15 13:03:31;;;;;;;5.90;2.60;;;;;;;;;;5020816;28;20097;-77
2022/07/15 13:05:58;;;;;;;1.40;0.82;;;;;;;;;;5028453;28;20026;-77
2022/07/15 13:08:25;;;;;;;2.47;0.80;;;;;;;;;;5033272;28;20489;-77
2022/07/15 13:10:53;;;;;;;0.95;0.70;;;;;;;;;;5033459;28;20108;-77
2022/07/15 13:13:20;;;;;;;1.00;0.63;;;;;;;;;;5032746;28;20076;-79
2022/07/15 13:15:47;;;;;;;3.15;0.88;;;;;;;;;;5031875;28;20025;-81
2022/07/15 13:18:14;;;;;;;2.38;0.90;;;;;;;;;;5013139;28;20030;-79
2022/07/15 13:20:40;;;;;;;1.88;0.80;;;;;;;;;;5013312;28;20049;-81
2022/07/15 13:23:07;;;;;;;2.38;1.00;;;;;;;;;;5015897;28;20039;-82
2022/07/15 13:25:36;;;;;;;1.20;0.73;;;;;;;;;;5015402;28;20048;-82
2022/07/15 13:28:05;;;;;;;1.30;0.80;;;;;;;;;;5032988;28;20077;-81
2022/07/15 13:30:31;;;;;;;1.45;0.80;;;;;;;;;;5032518;28;20091;-80
2022/07/15 13:32:58;;;;;;;1.00;0.70;;;;;;;;;;5033035;28;20108;-79
2022/07/15 13:35:24;;;;;;;2.28;0.60;;;;;;;;;;5032825;28;20025;-80
2022/07/15 13:37:50;;;;;;;1.40;0.70;;;;;;;;;;5015485;28;20032;-80
2022/07/15 13:40:16;;;;;;;1.77;0.70;;;;;;;;;;5032835;28;20021;-78
2022/07/15 13:42:43;;;;;;;3.05;1.10;;;;;;;;;;5032849;28;20030;-80
2022/07/15 13:45:10;;;;;;;2.10;0.80;;;;;;;;;;5032802;28;20033;-80
2022/07/15 13:47:36;;;;;;;1.20;0.60;;;;;;;;;;5032521;28;20021;-79
2022/07/15 13:52:50;;;;;;;1.70;0.80;;;;;;;;;;5035899;28;20040;-79
2022/07/15 13:55:18;;;;;;;2.15;0.90;;;;;;;;;;5036113;28;20096;-80
2022/07/15 13:57:44;;;;;;;2.92;1.00;;;;;;;;;;5032759;28;20022;-79
2022/07/15 14:00:12;;;;;;;1.27;0.85;;;;;;;;;;5032103;28;20101;-79
2022/07/15 14:02:38;;;;;;;1.50;0.93;;;;;;;;;;5011703;28;20488;-80
2022/07/15 14:05:05;;;;;;;2.35;0.85;;;;;;;;;;5021933;28;20025;-79
2022/07/15 14:07:32;;;;;;;3.22;0.70;;;;;;;;;;5022906;28;20033;-78
2022/07/15 14:09:58;;;;;;;1.70;0.80;;;;;;;;;;5020928;28;20037;-80
2022/07/15 14:12:24;;;;;;;1.67;0.85;;;;;;;;;;5021905;28;20039;-79
2022/07/15 14:14:50;;;;;;;2.78;0.88;;;;;;;;;;5022236;28;20030;-80
2022/07/15 14:17:16;;;;;;;1.80;0.80;;;;;;;;;;5024943;28;20459;-80
2022/07/15 14:19:42;;;;;;;2.33;0.93;;;;;;;;;;5021132;28;20112;-80
2022/07/15 14:22:09;;;;;;;1.40;0.70;;;;;;;;;;5020154;28;20057;-79
2022/07/15 14:24:35;;;;;;;1.83;0.80;;;;;;;;;;5005170;28;20021;-80
2022/07/15 14:27:10;;;;;;;2.05;0.85;;;;;;;;;;5021678;28;20552;-80
2022/07/15 14:29:36;;;;;;;1.27;0.70;;;;;;;;;;5017702;28;20025;-80
2022/07/15 14:32:02;;;;;;;1.55;0.88;;;;;;;;;;5020281;28;20080;-80
2022/07/15 14:34:29;;;;;;;2.80;0.90;;;;;;;;;;5022691;28;20041;-78
2022/07/15 14:36:55;;;;;;;2.00;0.80;;;;;;;;;;5003380;28;20033;-79
2022/07/15 14:39:21;;;;;;;1.73;0.80;;;;;;;;;;5021509;28;20093;-80
2022/07/15 14:41:47;;;;;;;1.10;0.50;;;;;;;;;;5022782;28;20026;-81
2022/07/15 14:44:13;;;;;;;2.90;0.70;;;;;;;;;;5024287;28;20038;-81
2022/07/15 14:46:39;;;;;;;1.38;0.77;;;;;;;;;;5008310;28;20436;-81
2022/07/15 14:49:05;;;;;;;1.13;0.80;;;;;;;;;;5027137;28;20033;-80
2022/07/15 14:51:32;;;;;;;2.13;0.80;;;;;;;;;;5024626;28;20034;-80
2022/07/15 14:53:58;;;;;;;2.00;0.70;;;;;;;;;;5008764;28;20029;-81
2022/07/15 14:56:24;;;;;;;1.98;0.80;;;;;;;;;;5026171;28;20026;-81
2022/07/15 14:58:50;;;;;;;2.97;0.80;;;;;;;;;;5024739;28;20370;-81